Emmanuel Tomasos — C6SS7 — position and weather

sailwx.info

Track history (hours):
 
Tides and Currents Weather Stations Pressure Air Temp Water Temp Dewpoint Dewpoint Depression Visibility Wind Speed Wind Dir Waves Ship Positions

Emmanuel Tomasos

Last reported at 2015-May-30 10:33 UTC. Time now 2015-May-30 12:32 UTC.
Position N 55°06' E 011°03'.

Length 182 m; draft 11.1 m.

Type: Tanker. MMSI: 311459000.

Date/timePositionNaut miles runAvg speedWind from/ knotsBaromVisibWave heightAir tempDewpointWater temp
2015-May-30 10:33N 55°06' E 011°03'1413.8
2015-May-30 09:33N 54°54' E 010°51'1413.5
2015-May-30 08:33N 54°41' E 010°47'1212.3
2015-May-30 07:33N 54°36' E 011°07'1212.3
2015-May-30 06:33N 54°31' E 011°26'1212.3
2015-May-30 05:33N 54°27' E 011°46'1212.1
2015-May-30 04:33N 54°27' E 012°07'4410.8
2015-May-30 00:32N 54°53' E 013°07'1313.0
2015-May-29 23:33N 54°57' E 013°28'1313.1
2015-May-29 22:33N 55°02' E 013°49'1312.7
2015-May-29 21:33N 55°08' E 014°08'1312.9
2015-May-29 20:33N 55°18' E 014°22'1313.0
2015-May-29 19:33N 55°28' E 014°38'1312.9
2015-May-29 18:33N 55°34' E 014°58'1313.0
2015-May-29 17:33N 55°38' E 015°20'1313.1
2015-May-29 16:33N 55°41' E 015°42'28911.5
2015-May-28 15:32N 59°14' E 021°45'5212.7
2015-May-28 11:28N 59°36' E 023°17'1212.8
2015-May-28 10:33N 59°39' E 023°39'1312.8
2015-May-28 09:33N 59°43' E 024°03'1312.6
2015-May-28 08:33N 59°47' E 024°27'6512.7
2015-May-28 03:29N 60°01' E 026°33'1212.7
2015-May-28 02:32N 59°60' E 026°57'  
2015-May-25 22:13N 60°32' E 028°22'14 8.0
2015-May-25 20:25N 60°20' E 028°06'4 0.3
2015-May-25 04:33N 60°18' E 027°59'1211.5
2015-May-25 03:31N 60°09' E 027°42'1313.8
2015-May-25 02:34N 60°02' E 027°19'1313.2
2015-May-25 01:33N 59°58' E 026°54'1413.5
2015-May-25 00:33N 59°57' E 026°27'1414.0
2015-May-24 23:33N 59°54' E 025°60'1413.9
2015-May-24 22:33N 59°51' E 025°33'1413.9
2015-May-24 21:34N 59°48' E 025°06'1414.0
2015-May-24 20:33N 59°45' E 024°39'1413.8
2015-May-24 19:33N 59°42' E 024°12'1413.8
2015-May-24 18:33N 59°36' E 023°48'1413.7
2015-May-24 17:33N 59°31' E 023°22'24713.6
2015-May-23 23:22N 56°16' E 018°38'1113.9
2015-May-23 22:32N 56°09' E 018°21'3013.8
2015-May-23 20:23N 55°54' E 017°35'1213.9
2015-May-23 19:31N 55°51' E 017°14'5614.0
2015-May-23 15:34N 55°38' E 015°38'1414.1
2015-May-23 14:33N 55°32' E 015°15'1414.3
2015-May-23 13:34N 55°23' E 014°57'1212.0
2015-May-23 12:33N 55°17' E 014°39'1313.5
2015-May-23 11:33N 55°10' E 014°18'2813.6
2015-May-23 09:31N 55°12' E 013°29'1313.9
2015-May-23 08:33N 55°13' E 013°06'1413.9
2015-May-23 07:34N 55°17' E 012°43'1312.5
2015-May-23 06:33N 55°29' E 012°41'1110.9
2015-May-23 05:33N 55°40' E 012°41'1413.9
2015-May-23 04:33N 55°54' E 012°39'1312.8
2015-May-23 03:33N 56°06' E 012°32'10 9.8
2015-May-23 02:33N 56°12' E 012°18'1212.2
2015-May-23 01:33N 56°20' E 012°02'1514.6
2015-May-23 00:33N 56°35' E 011°57'1514.6
2015-May-22 23:33N 56°49' E 011°50'1414.4
2015-May-22 22:33N 57°02' E 011°41'1514.7
2015-May-22 21:33N 57°16' E 011°32'1414.1
2015-May-22 20:33N 57°29' E 011°22'1515.0
2015-May-22 19:33N 57°40' E 011°02'1414.2
2015-May-22 18:33N 57°48' E 010°41'19113.4
2015-May-22 04:20N 55°46' E 006°12'1414.0
2015-May-22 03:20N 55°34' E 006°01'1113.9
2015-May-22 02:33N 55°24' E 005°53'7213.9
2015-May-21 21:25N 54°19' E 005°00'1214.0
2015-May-21 20:33N 54°10' E 004°48'3013.9
2015-May-21 18:24N 53°45' E 004°18'6613.5
2015-May-21 13:31N 52°51' E 003°17'7912.2
2015-May-21 07:03N 51°38' E 002°25'713.9
2015-May-21 06:33N 51°33' E 002°18'1414.3
2015-May-21 05:33N 51°23' E 002°02'1514.8
2015-May-21 04:33N 51°11' E 001°47'10 9.8
2015-May-21 03:33N 51°03' E 001°54'1312.6
2015-May-21 02:33N 51°04' E 002°14'5 4.6
2015-May-21 01:33N 51°03' E 002°21'0 0.0
2015-May-20 13:17N 51°03' E 002°21'  
Track history (hours):
 
Tides and Currents Weather Stations Pressure Air Temp Water Temp Dewpoint Dewpoint Depression Visibility Wind Speed Wind Dir Waves Ship Positions

Emmanuel Tomasos

Last reported at 2015-May-30 10:33 UTC. Time now 2015-May-30 12:32 UTC.
Position N 55°06' E 011°03'.

Length 182 m; draft 11.1 m.

Type: Tanker. MMSI: 311459000.

Date/timePositionNaut miles runAvg speedWind from/ knotsBaromVisibWave heightAir tempDewpointWater temp
2015-May-30 10:33N 55°06' E 011°03'1413.8
2015-May-30 09:33N 54°54' E 010°51'1413.5
2015-May-30 08:33N 54°41' E 010°47'1212.3
2015-May-30 07:33N 54°36' E 011°07'1212.3
2015-May-30 06:33N 54°31' E 011°26'1212.3
2015-May-30 05:33N 54°27' E 011°46'1212.1
2015-May-30 04:33N 54°27' E 012°07'4410.8
2015-May-30 00:32N 54°53' E 013°07'1313.0
2015-May-29 23:33N 54°57' E 013°28'1313.1
2015-May-29 22:33N 55°02' E 013°49'1312.7
2015-May-29 21:33N 55°08' E 014°08'1312.9
2015-May-29 20:33N 55°18' E 014°22'1313.0
2015-May-29 19:33N 55°28' E 014°38'1312.9
2015-May-29 18:33N 55°34' E 014°58'1313.0
2015-May-29 17:33N 55°38' E 015°20'1313.1
2015-May-29 16:33N 55°41' E 015°42'28911.5
2015-May-28 15:32N 59°14' E 021°45'5212.7
2015-May-28 11:28N 59°36' E 023°17'1212.8
2015-May-28 10:33N 59°39' E 023°39'1312.8
2015-May-28 09:33N 59°43' E 024°03'1312.6
2015-May-28 08:33N 59°47' E 024°27'6512.7
2015-May-28 03:29N 60°01' E 026°33'1212.7
2015-May-28 02:32N 59°60' E 026°57'  
2015-May-25 22:13N 60°32' E 028°22'14 8.0
2015-May-25 20:25N 60°20' E 028°06'4 0.3
2015-May-25 04:33N 60°18' E 027°59'1211.5
2015-May-25 03:31N 60°09' E 027°42'1313.8
2015-May-25 02:34N 60°02' E 027°19'1313.2
2015-May-25 01:33N 59°58' E 026°54'1413.5
2015-May-25 00:33N 59°57' E 026°27'1414.0
2015-May-24 23:33N 59°54' E 025°60'1413.9
2015-May-24 22:33N 59°51' E 025°33'1413.9
2015-May-24 21:34N 59°48' E 025°06'1414.0
2015-May-24 20:33N 59°45' E 024°39'1413.8
2015-May-24 19:33N 59°42' E 024°12'1413.8
2015-May-24 18:33N 59°36' E 023°48'1413.7
2015-May-24 17:33N 59°31' E 023°22'24713.6
2015-May-23 23:22N 56°16' E 018°38'1113.9
2015-May-23 22:32N 56°09' E 018°21'3013.8
2015-May-23 20:23N 55°54' E 017°35'1213.9
2015-May-23 19:31N 55°51' E 017°14'5614.0
2015-May-23 15:34N 55°38' E 015°38'1414.1
2015-May-23 14:33N 55°32' E 015°15'1414.3
2015-May-23 13:34N 55°23' E 014°57'1212.0
2015-May-23 12:33N 55°17' E 014°39'1313.5
2015-May-23 11:33N 55°10' E 014°18'2813.6
2015-May-23 09:31N 55°12' E 013°29'1313.9
2015-May-23 08:33N 55°13' E 013°06'1413.9
2015-May-23 07:34N 55°17' E 012°43'1312.5
2015-May-23 06:33N 55°29' E 012°41'1110.9
2015-May-23 05:33N 55°40' E 012°41'1413.9
2015-May-23 04:33N 55°54' E 012°39'1312.8
2015-May-23 03:33N 56°06' E 012°32'10 9.8
2015-May-23 02:33N 56°12' E 012°18'1212.2
2015-May-23 01:33N 56°20' E 012°02'1514.6
2015-May-23 00:33N 56°35' E 011°57'1514.6
2015-May-22 23:33N 56°49' E 011°50'1414.4
2015-May-22 22:33N 57°02' E 011°41'1514.7
2015-May-22 21:33N 57°16' E 011°32'1414.1
2015-May-22 20:33N 57°29' E 011°22'1515.0
2015-May-22 19:33N 57°40' E 011°02'1414.2
2015-May-22 18:33N 57°48' E 010°41'19113.4
2015-May-22 04:20N 55°46' E 006°12'1414.0
2015-May-22 03:20N 55°34' E 006°01'1113.9
2015-May-22 02:33N 55°24' E 005°53'7213.9
2015-May-21 21:25N 54°19' E 005°00'1214.0
2015-May-21 20:33N 54°10' E 004°48'3013.9
2015-May-21 18:24N 53°45' E 004°18'6613.5
2015-May-21 13:31N 52°51' E 003°17'7912.2
2015-May-21 07:03N 51°38' E 002°25'713.9
2015-May-21 06:33N 51°33' E 002°18'1414.3
2015-May-21 05:33N 51°23' E 002°02'1514.8
2015-May-21 04:33N 51°11' E 001°47'10 9.8
2015-May-21 03:33N 51°03' E 001°54'1312.6
2015-May-21 02:33N 51°04' E 002°14'5 4.6
2015-May-21 01:33N 51°03' E 002°21'0 0.0
2015-May-20 13:17N 51°03' E 002°21'  

Dump ship's entire track history